createdAt,value
2019-05-10T06:00:27.519Z,1000.86
2019-05-10T06:01:29.514Z,1000.88
2019-05-10T06:02:27.458Z,1000.86
2019-05-10T06:03:29.331Z,1000.83
2019-05-10T06:04:27.457Z,1000.84
2019-05-10T06:05:34.166Z,1000.92
2019-05-10T06:06:28.435Z,1000.92
2019-05-10T06:07:31.135Z,1000.95
2019-05-10T06:08:30.053Z,1000.92
2019-05-10T06:09:31.913Z,1000.97
2019-05-10T06:10:28.335Z,1000.91
2019-05-10T06:11:29.818Z,1000.98
2019-05-10T06:12:28.300Z,1001.01
2019-05-10T06:13:30.228Z,1001.01
2019-05-10T06:14:27.306Z,1001.04
2019-05-10T06:15:29.051Z,1001.02
2019-05-10T06:16:27.342Z,1001.08
2019-05-10T06:17:29.589Z,1001.01
2019-05-10T06:18:27.301Z,1001.08
2019-05-10T06:19:29.648Z,1001.11
2019-05-10T06:20:27.319Z,1001.10
2019-05-10T06:21:27.285Z,1001.06
2019-05-10T06:22:27.278Z,1001.13
2019-05-10T06:23:29.166Z,1001.10
2019-05-10T06:24:28.230Z,1001.17
2019-05-10T06:25:39.635Z,1001.16
2019-05-10T06:26:28.826Z,1001.13
2019-05-10T06:27:27.175Z,1001.14
2019-05-10T06:28:56.466Z,1001.18
2019-05-10T06:29:28.129Z,1001.22
2019-05-10T06:30:27.125Z,1001.19
2019-05-10T06:31:27.100Z,1001.15
2019-05-10T06:32:27.962Z,1001.25
2019-05-10T06:33:27.075Z,1001.21
2019-05-10T06:34:32.050Z,1001.22
2019-05-10T06:35:28.104Z,1001.28
2019-05-10T06:36:27.049Z,1001.28
2019-05-10T06:37:27.035Z,1001.22
2019-05-10T06:38:27.022Z,1001.33
2019-05-10T06:39:27.072Z,1001.26
2019-05-10T06:40:35.588Z,1001.32
2019-05-10T06:41:27.997Z,1001.36
2019-05-10T06:42:28.775Z,1001.33
2019-05-10T06:43:27.968Z,1001.37
2019-05-10T06:44:31.239Z,1001.39
2019-05-10T06:45:27.948Z,1001.40
2019-05-10T06:46:29.399Z,1001.41
2019-05-10T06:47:26.933Z,1001.44
2019-05-10T06:48:31.430Z,1001.47
2019-05-10T06:49:27.923Z,1001.49
2019-05-10T06:50:30.058Z,1001.58
2019-05-10T06:51:26.883Z,1001.53
2019-05-10T06:52:28.018Z,1001.54
2019-05-10T06:53:26.866Z,1001.51
2019-05-10T06:54:26.860Z,1001.56
2019-05-10T06:55:26.899Z,1001.53
2019-05-10T06:56:26.845Z,1001.57
2019-05-10T06:57:26.821Z,1001.50
2019-05-10T06:58:30.510Z,1001.55
2019-05-10T06:59:27.826Z,1001.60
2019-05-10T07:00:26.847Z,1001.57
2019-05-10T07:01:26.784Z,1001.57
2019-05-10T07:02:32.215Z,1001.65
2019-05-10T07:03:27.754Z,1001.58
2019-05-10T07:04:26.771Z,1001.64
2019-05-10T07:05:26.770Z,1001.67
2019-05-10T07:06:26.726Z,1001.65
2019-05-10T07:07:43.135Z,1001.63
2019-05-10T07:08:27.703Z,1001.70
2019-05-10T07:09:26.706Z,1001.71
2019-05-10T07:10:26.710Z,1001.71
2019-05-10T07:11:26.670Z,1001.72
2019-05-10T07:12:30.016Z,1001.69
2019-05-10T07:13:26.662Z,1001.69
2019-05-10T07:14:27.361Z,1001.75
2019-05-10T07:15:26.682Z,1001.83
2019-05-10T07:16:26.645Z,1001.76
2019-05-10T07:17:26.640Z,1001.78
2019-05-10T07:18:26.626Z,1001.82
2019-05-10T07:19:28.694Z,1001.78
2019-05-10T07:20:29.480Z,1001.80
2019-05-10T07:21:26.590Z,1001.83
2019-05-10T07:22:28.859Z,1001.85
2019-05-10T07:23:29.936Z,1001.90
2019-05-10T07:24:27.071Z,1001.84
2019-05-10T07:25:26.521Z,1001.89
2019-05-10T07:26:26.978Z,1001.86
2019-05-10T07:27:26.557Z,1001.86
2019-05-10T07:28:26.496Z,1001.87
2019-05-10T07:29:29.963Z,1001.89
2019-05-10T07:30:26.526Z,1001.93
2019-05-10T07:31:26.515Z,1001.95
2019-05-10T07:32:26.455Z,1001.93
2019-05-10T07:33:26.440Z,1002.02
2019-05-10T07:34:26.429Z,1002.00
2019-05-10T07:35:31.034Z,1002.04
2019-05-10T07:36:30.483Z,1002.08
2019-05-10T07:37:26.451Z,1002.11
2019-05-10T07:38:30.647Z,1002.10
2019-05-10T07:39:27.373Z,1002.16
2019-05-10T07:40:26.406Z,1002.09
2019-05-10T07:41:28.964Z,1002.18
2019-05-10T07:42:26.355Z,1002.14
2019-05-10T07:43:29.008Z,1002.25
2019-05-10T07:44:26.329Z,1002.20
2019-05-10T07:45:27.368Z,1002.25
2019-05-10T07:46:26.374Z,1002.27
2019-05-10T07:47:30.398Z,1002.24
2019-05-10T07:48:27.283Z,1002.24
2019-05-10T07:49:30.204Z,1002.31
2019-05-10T07:50:27.253Z,1002.29
2019-05-10T07:51:28.716Z,1002.29
2019-05-10T07:52:26.247Z,1002.31
2019-05-10T07:53:26.255Z,1002.33
2019-05-10T07:54:26.294Z,1002.35
2019-05-10T07:55:29.517Z,1002.36
2019-05-10T07:56:26.244Z,1002.37
2019-05-10T07:57:27.111Z,1002.35
2019-05-10T07:58:26.218Z,1002.34
2019-05-10T07:59:30.447Z,1002.34
2019-05-10T08:00:27.188Z,1002.39
2019-05-10T08:01:32.335Z,1002.35
2019-05-10T08:02:27.156Z,1002.40
2019-05-10T08:03:26.131Z,1002.43
2019-05-10T08:04:31.863Z,1002.41
2019-05-10T08:05:29.393Z,1002.46
2019-05-10T08:06:26.085Z,1002.46
2019-05-10T08:07:26.077Z,1002.46
2019-05-10T08:08:26.161Z,1002.48
2019-05-10T08:09:26.058Z,1002.46
2019-05-10T08:10:28.754Z,1002.43
2019-05-10T08:11:28.422Z,1002.50
2019-05-10T08:12:28.661Z,1002.50
2019-05-10T08:13:28.217Z,1002.50
2019-05-10T08:14:26.168Z,1002.56
2019-05-10T08:15:32.645Z,1002.51
2019-05-10T08:16:28.923Z,1002.52
2019-05-10T08:17:25.970Z,1002.53
2019-05-10T08:18:25.986Z,1002.54
2019-05-10T08:19:25.950Z,1002.63
2019-05-10T08:20:41.437Z,1002.59
2019-05-10T08:21:26.989Z,1002.61
2019-05-10T08:22:26.048Z,1002.68
2019-05-10T08:23:28.001Z,1002.66
2019-05-10T08:24:25.908Z,1002.65
2019-05-10T08:25:29.020Z,1002.71
2019-05-10T08:26:26.918Z,1002.71
2019-05-10T08:27:25.891Z,1002.73
2019-05-10T08:28:27.932Z,1002.66
2019-05-10T08:29:26.877Z,1002.66
2019-05-10T08:30:29.129Z,1002.71
2019-05-10T08:31:26.523Z,1002.78
2019-05-10T08:32:29.861Z,1002.78
2019-05-10T08:33:26.987Z,1002.77
2019-05-10T08:34:28.844Z,1002.80
2019-05-10T08:35:26.795Z,1002.84
2019-05-10T08:36:25.807Z,1002.81
2019-05-10T08:37:31.023Z,1002.80
2019-05-10T08:38:26.827Z,1002.81
2019-05-10T08:39:25.738Z,1002.86
2019-05-10T08:40:33.624Z,1002.87
2019-05-10T08:41:26.715Z,1002.88
2019-05-10T08:42:40.792Z,1002.92
2019-05-10T08:43:30.872Z,1002.92
2019-05-10T08:44:26.705Z,1002.99
2019-05-10T08:45:25.674Z,1002.93
2019-05-10T08:46:37.383Z,1003.00
2019-05-10T08:47:27.749Z,1003.00
2019-05-10T08:48:27.612Z,1003.04
2019-05-10T08:49:32.600Z,1002.96
2019-05-10T08:50:44.224Z,1002.97
2019-05-10T08:51:26.645Z,1003.04
2019-05-10T08:52:30.917Z,1003.02
2019-05-10T08:53:26.624Z,1003.01
2019-05-10T08:54:26.436Z,1002.97
2019-05-10T08:55:25.564Z,1002.95
2019-05-10T08:56:25.563Z,1002.99
2019-05-10T08:57:25.545Z,1003.00
2019-05-10T08:58:31.233Z,1002.97
2019-05-10T08:59:26.866Z,1003.04
2019-05-10T09:00:41.405Z,1003.07
2019-05-10T09:01:30.087Z,1002.97
2019-05-10T09:02:29.348Z,1002.98
2019-05-10T09:03:25.483Z,1003.06
2019-05-10T09:04:25.473Z,1003.01
2019-05-10T09:05:29.014Z,1003.07
2019-05-10T09:06:26.481Z,1003.05
2019-05-10T09:07:29.462Z,1003.06
2019-05-10T09:08:28.571Z,1003.09
2019-05-10T09:09:26.417Z,1003.12
2019-05-10T09:10:25.413Z,1003.10
2019-05-10T09:11:25.420Z,1003.11
2019-05-10T09:12:25.389Z,1003.15
2019-05-10T09:13:28.844Z,1003.07
2019-05-10T09:14:26.367Z,1003.19
2019-05-10T09:15:25.409Z,1003.13
2019-05-10T09:16:28.993Z,1003.21
2019-05-10T09:17:28.350Z,1003.18
2019-05-10T09:18:25.321Z,1003.18
2019-05-10T09:19:36.173Z,1003.23
2019-05-10T09:20:26.729Z,1003.20
2019-05-10T09:21:25.311Z,1003.18
2019-05-10T09:22:32.542Z,1003.17
2019-05-10T09:23:26.319Z,1003.26
2019-05-10T09:24:25.255Z,1003.19
2019-05-10T09:25:29.545Z,1003.19
2019-05-10T09:26:26.283Z,1003.23
2019-05-10T09:27:29.165Z,1003.24
2019-05-10T09:28:25.314Z,1003.23
2019-05-10T09:29:27.429Z,1003.29
2019-05-10T09:30:26.203Z,1003.36
2019-05-10T09:31:25.795Z,1003.29
2019-05-10T09:32:29.070Z,1003.45
2019-05-10T09:33:26.158Z,1003.42
2019-05-10T09:34:27.061Z,1003.47
2019-05-10T09:35:25.142Z,1003.52
2019-05-10T09:36:30.966Z,1003.51
2019-05-10T09:37:26.173Z,1003.46
2019-05-10T09:38:28.657Z,1003.47
2019-05-10T09:39:26.231Z,1003.48
2019-05-10T09:40:25.087Z,1003.48
2019-05-10T09:41:27.683Z,1003.50
2019-05-10T09:42:33.090Z,1003.48
2019-05-10T09:43:26.109Z,1003.52
2019-05-10T09:44:25.042Z,1003.58
2019-05-10T09:45:25.029Z,1003.52
2019-05-10T09:46:25.178Z,1003.50
2019-05-10T09:47:25.055Z,1003.45
2019-05-10T09:48:25.028Z,1003.56
2019-05-10T09:49:24.994Z,1003.50
2019-05-10T09:50:30.562Z,1003.54
2019-05-10T09:51:30.066Z,1003.53
2019-05-10T09:52:24.994Z,1003.55
2019-05-10T09:53:27.444Z,1003.58
2019-05-10T09:54:31.763Z,1003.55
2019-05-10T09:55:28.012Z,1003.62
2019-05-10T09:56:27.451Z,1003.60
2019-05-10T09:57:24.965Z,1003.64
2019-05-10T09:58:24.899Z,1003.59
2019-05-10T09:59:24.883Z,1003.59
2019-05-10T10:00:27.050Z,1003.59
2019-05-10T10:01:28.054Z,1003.57
2019-05-10T10:02:31.083Z,1003.64
2019-05-10T10:03:29.642Z,1003.66
2019-05-10T10:04:24.830Z,1003.61
2019-05-10T10:05:24.861Z,1003.73
2019-05-10T10:06:24.809Z,1003.70
2019-05-10T10:07:31.758Z,1003.61
2019-05-10T10:08:28.126Z,1003.59
2019-05-10T10:09:32.925Z,1003.68
2019-05-10T10:10:31.709Z,1003.65
2019-05-10T10:11:27.862Z,1003.63
2019-05-10T10:12:24.768Z,1003.61
2019-05-10T10:13:39.056Z,1003.62
2019-05-10T10:14:28.312Z,1003.64
2019-05-10T10:15:32.108Z,1003.70
2019-05-10T10:16:28.061Z,1003.65
2019-05-10T10:17:24.777Z,1003.66
2019-05-10T10:18:25.541Z,1003.67
2019-05-10T10:19:24.844Z,1003.70
2019-05-10T10:20:24.663Z,1003.69
2019-05-10T10:21:30.780Z,1003.69
2019-05-10T10:22:27.731Z,1003.63
2019-05-10T10:23:29.919Z,1003.62
2019-05-10T10:24:28.338Z,1003.64
2019-05-10T10:25:27.796Z,1003.60
2019-05-10T10:26:26.882Z,1003.66
2019-05-10T10:27:28.016Z,1003.62
2019-05-10T10:28:25.612Z,1003.54
2019-05-10T10:29:28.692Z,1003.57
2019-05-10T10:30:27.583Z,1003.56
2019-05-10T10:31:32.563Z,1003.56
2019-05-10T10:32:31.630Z,1003.62
2019-05-10T10:33:28.832Z,1003.67
2019-05-10T10:34:24.508Z,1003.58
2019-05-10T10:35:27.730Z,1003.60
2019-05-10T10:36:27.445Z,1003.55
2019-05-10T10:37:29.028Z,1003.57
2019-05-10T10:38:28.792Z,1003.61
2019-05-10T10:39:27.614Z,1003.65
2019-05-10T10:40:24.487Z,1003.53
2019-05-10T10:41:27.369Z,1003.58
2019-05-10T10:42:25.420Z,1003.61
2019-05-10T10:43:24.411Z,1003.61
2019-05-10T10:44:26.925Z,1003.63
2019-05-10T10:45:24.389Z,1003.56
2019-05-10T10:46:24.379Z,1003.54
2019-05-10T10:47:30.415Z,1003.56
2019-05-10T10:48:25.357Z,1003.58
2019-05-10T10:49:28.024Z,1003.55
2019-05-10T10:50:27.498Z,1003.57
2019-05-10T10:51:26.621Z,1003.54
2019-05-10T10:52:27.689Z,1003.55
2019-05-10T10:53:24.344Z,1003.51
2019-05-10T10:54:28.651Z,1003.52
2019-05-10T10:55:30.566Z,1003.48
2019-05-10T10:56:27.475Z,1003.46
2019-05-10T10:57:24.305Z,1003.42
2019-05-10T10:58:24.257Z,1003.50
2019-05-10T10:59:24.245Z,1003.58
2019-05-10T11:00:24.239Z,1003.44
2019-05-10T11:01:25.622Z,1003.45
2019-05-10T11:02:32.837Z,1003.45
2019-05-10T11:03:30.399Z,1003.42
2019-05-10T11:04:25.190Z,1003.45
2019-05-10T11:05:24.179Z,1003.50
2019-05-10T11:06:24.201Z,1003.45
2019-05-10T11:07:24.176Z,1003.41
2019-05-10T11:08:24.166Z,1003.46
2019-05-10T11:09:24.161Z,1003.54
2019-05-10T11:10:24.126Z,1003.56
2019-05-10T11:11:24.147Z,1003.55
2019-05-10T11:12:24.226Z,1003.47
2019-05-10T11:13:41.628Z,1003.46
2019-05-10T11:14:25.091Z,1003.49
2019-05-10T11:15:28.249Z,1003.48
2019-05-10T11:16:25.068Z,1003.49
2019-05-10T11:17:24.058Z,1003.52
2019-05-10T11:18:24.150Z,1003.53
2019-05-10T11:19:24.037Z,1003.49
2019-05-10T11:20:24.034Z,1003.48
2019-05-10T11:21:28.830Z,1003.52
2019-05-10T11:22:27.320Z,1003.48
2019-05-10T11:23:33.088Z,1003.51
2019-05-10T11:24:24.977Z,1003.53
2019-05-10T11:25:24.038Z,1003.51
2019-05-10T11:26:26.784Z,1003.48
2019-05-10T11:27:24.956Z,1003.52
2019-05-10T11:28:23.936Z,1003.50
2019-05-10T11:29:27.853Z,1003.56
2019-05-10T11:30:23.955Z,1003.49
2019-05-10T11:31:23.931Z,1003.45
2019-05-10T11:32:23.929Z,1003.51
2019-05-10T11:33:29.810Z,1003.50
2019-05-10T11:34:29.310Z,1003.45
2019-05-10T11:35:30.477Z,1003.46
2019-05-10T11:36:24.844Z,1003.39
2019-05-10T11:37:31.058Z,1003.44
2019-05-10T11:38:24.823Z,1003.52
2019-05-10T11:39:26.656Z,1003.47
2019-05-10T11:40:30.728Z,1003.42
2019-05-10T11:41:24.827Z,1003.42
2019-05-10T11:42:23.807Z,1003.45
2019-05-10T11:43:27.046Z,1003.45
2019-05-10T11:44:25.871Z,1003.44
2019-05-10T11:45:26.076Z,1003.45
2019-05-10T11:46:27.814Z,1003.45
2019-05-10T11:47:27.163Z,1003.44
2019-05-10T11:48:28.265Z,1003.45
2019-05-10T11:49:24.722Z,1003.47
2019-05-10T11:50:30.952Z,1003.43
2019-05-10T11:51:24.688Z,1003.41
2019-05-10T11:52:23.711Z,1003.51
2019-05-10T11:53:24.125Z,1003.47
2019-05-10T11:54:24.201Z,1003.45
2019-05-10T11:55:23.672Z,1003.43
2019-05-10T11:57:24.663Z,1003.45
2019-05-10T11:58:23.974Z,1003.53
2019-05-10T11:59:27.281Z,1003.47
2019-05-10T12:00:31.300Z,1003.52
2019-05-10T12:01:24.589Z,1003.56
2019-05-10T12:03:24.601Z,1003.52
2019-05-10T12:05:26.696Z,1003.48
2019-05-10T12:06:23.558Z,1003.53
2019-05-10T12:07:34.017Z,1003.53
2019-05-10T12:08:24.555Z,1003.49
2019-05-10T12:09:24.541Z,1003.56
2019-05-10T12:10:25.593Z,1003.49
2019-05-10T12:11:32.908Z,1003.50
2019-05-10T12:12:45.029Z,1003.49
2019-05-10T12:13:25.210Z,1003.60
2019-05-10T12:14:23.500Z,1003.59
2019-05-10T12:16:24.508Z,1003.60
2019-05-10T12:17:23.945Z,1003.59
2019-05-10T12:18:26.963Z,1003.59
2019-05-10T12:19:23.424Z,1003.60
2019-05-10T12:21:24.392Z,1003.55
2019-05-10T12:22:32.092Z,1003.58
2019-05-10T12:23:29.995Z,1003.71
2019-05-10T12:24:38.784Z,1003.61
2019-05-10T12:25:41.933Z,1003.61
2019-05-10T12:26:05.556Z,1003.59
2019-05-10T12:26:05.893Z,1003.52
2019-05-10T12:26:30.550Z,1003.55
2019-05-10T12:26:30.935Z,1003.49
2019-05-10T12:26:59.181Z,1003.63
2019-05-10T12:27:29.234Z,1003.64
2019-05-10T12:28:28.754Z,1003.66
2019-05-10T12:29:24.288Z,1003.67
2019-05-10T12:30:23.594Z,1003.69
2019-05-10T12:31:24.249Z,1003.73
2019-05-10T12:32:27.013Z,1003.71
2019-05-10T12:33:27.381Z,1003.67
2019-05-10T12:34:23.281Z,1003.77
2019-05-10T12:35:26.481Z,1003.72
2019-05-10T12:36:27.441Z,1003.74
2019-05-10T12:37:23.213Z,1003.78
2019-05-10T12:38:28.775Z,1003.70
2019-05-10T12:39:24.269Z,1003.73
2019-05-10T12:40:24.122Z,1003.67
2019-05-10T12:41:23.498Z,1003.68
2019-05-10T12:42:23.222Z,1003.69
2019-05-10T12:43:25.700Z,1003.66
2019-05-10T12:44:23.750Z,1003.62
2019-05-10T12:45:23.523Z,1003.66
2019-05-10T12:46:23.169Z,1003.62
2019-05-10T12:47:23.131Z,1003.62
2019-05-10T12:48:23.535Z,1003.65
2019-05-10T12:49:23.077Z,1003.60
2019-05-10T12:50:23.126Z,1003.71
2019-05-10T12:51:23.075Z,1003.69
2019-05-10T12:52:28.330Z,1003.69
2019-05-10T12:53:24.111Z,1003.66
2019-05-10T12:54:23.955Z,1003.62
2019-05-10T12:55:23.025Z,1003.68
2019-05-10T12:56:23.026Z,1003.65
2019-05-10T12:57:22.990Z,1003.68
2019-05-10T12:58:23.007Z,1003.63
2019-05-10T12:59:23.013Z,1003.68
2019-05-10T13:00:22.948Z,1003.73
2019-05-10T13:01:25.759Z,1003.72
2019-05-10T13:02:23.965Z,1003.67
2019-05-10T13:03:25.274Z,1003.66
2019-05-10T13:04:39.420Z,1003.70
2019-05-10T13:05:30.865Z,1003.75
2019-05-10T13:06:23.888Z,1003.68
2019-05-10T13:07:22.900Z,1003.75
2019-05-10T13:08:22.906Z,1003.75
2019-05-10T13:09:36.535Z,1003.76
2019-05-10T13:10:23.894Z,1003.68
2019-05-10T13:11:25.306Z,1003.71
2019-05-10T13:12:22.957Z,1003.70
2019-05-10T13:13:27.009Z,1003.62
2019-05-10T13:14:23.824Z,1003.63
2019-05-10T13:15:24.790Z,1003.59
2019-05-10T13:16:23.787Z,1003.61
2019-05-10T13:17:22.796Z,1003.61
2019-05-10T13:18:34.405Z,1003.61
2019-05-10T13:19:23.744Z,1003.71
2019-05-10T13:20:22.791Z,1003.68
2019-05-10T13:21:23.171Z,1003.65
2019-05-10T13:22:22.749Z,1003.65
2019-05-10T13:23:22.702Z,1003.72
2019-05-10T13:24:22.695Z,1003.77
2019-05-10T13:25:22.707Z,1003.70
2019-05-10T13:26:22.672Z,1003.72
2019-05-10T13:27:22.686Z,1003.77
2019-05-10T13:28:22.690Z,1003.65
2019-05-10T13:29:22.663Z,1003.80
2019-05-10T13:30:27.508Z,1003.81
2019-05-10T13:31:23.659Z,1003.79
2019-05-10T13:32:22.670Z,1003.79
2019-05-10T13:33:28.987Z,1003.76
2019-05-10T13:34:24.456Z,1003.78
2019-05-10T13:35:22.575Z,1003.75
2019-05-10T13:36:22.570Z,1003.72
2019-05-10T13:37:24.822Z,1003.72
2019-05-10T13:38:22.935Z,1003.69
2019-05-10T13:39:25.527Z,1003.56
2019-05-10T13:40:22.550Z,1003.61
2019-05-10T13:41:24.426Z,1003.60
2019-05-10T13:42:22.513Z,1003.56
2019-05-10T13:43:26.639Z,1003.63
2019-05-10T13:44:23.485Z,1003.66
2019-05-10T13:45:22.480Z,1003.68
2019-05-10T13:46:23.765Z,1003.76
2019-05-10T13:47:22.460Z,1003.75
2019-05-10T13:48:26.115Z,1003.79
2019-05-10T13:49:22.454Z,1003.76
2019-05-10T13:50:22.422Z,1003.77
2019-05-10T13:51:22.437Z,1003.79
2019-05-10T13:52:22.426Z,1003.75
2019-05-10T13:53:23.234Z,1003.83
2019-05-10T13:54:22.373Z,1003.82
2019-05-10T13:55:22.405Z,1003.83
2019-05-10T13:56:22.369Z,1003.88
2019-05-10T13:57:22.379Z,1003.83
2019-05-10T13:58:22.428Z,1003.93
2019-05-10T13:59:22.343Z,1003.92
2019-05-10T14:00:22.307Z,1003.89
2019-05-10T14:01:22.297Z,1003.92
2019-05-10T14:02:31.956Z,1003.87
2019-05-10T14:03:23.293Z,1003.85
2019-05-10T14:04:23.269Z,1003.84
2019-05-10T14:05:22.294Z,1003.91
2019-05-10T14:06:22.272Z,1003.91
2019-05-10T14:07:22.262Z,1003.89
2019-05-10T14:08:22.318Z,1003.93
2019-05-10T14:09:22.266Z,1003.90
2019-05-10T14:10:23.414Z,1003.93
2019-05-10T14:11:22.217Z,1003.88
2019-05-10T14:12:25.591Z,1003.91
2019-05-10T14:13:22.244Z,1003.94
2019-05-10T14:14:26.428Z,1003.97
2019-05-10T14:15:22.157Z,1004.03
2019-05-10T14:16:22.661Z,1003.95
2019-05-10T14:17:22.132Z,1003.91
2019-05-10T14:18:22.272Z,1003.93
2019-05-10T14:19:23.351Z,1003.93
2019-05-10T14:20:27.500Z,1003.93
2019-05-10T14:21:23.096Z,1003.92
2019-05-10T14:22:22.143Z,1003.99
2019-05-10T14:23:22.088Z,1003.96
2019-05-10T14:24:22.097Z,1003.96
2019-05-10T14:25:22.073Z,1003.91
2019-05-10T14:26:22.031Z,1003.92
2019-05-10T14:27:22.616Z,1003.92
2019-05-10T14:28:22.013Z,1003.94
2019-05-10T14:29:33.212Z,1003.97
2019-05-10T14:30:23.178Z,1003.97
2019-05-10T14:31:23.779Z,1003.96
2019-05-10T14:32:21.980Z,1003.96
2019-05-10T14:33:21.962Z,1003.94
2019-05-10T14:34:21.964Z,1003.96
2019-05-10T14:35:22.844Z,1003.98
2019-05-10T14:36:21.929Z,1003.95
2019-05-10T14:37:21.923Z,1003.97
2019-05-10T14:38:22.974Z,1004.00
2019-05-10T14:39:21.890Z,1003.98
2019-05-10T14:40:27.642Z,1004.02
2019-05-10T14:41:22.872Z,1003.98
2019-05-10T14:42:28.501Z,1003.91
2019-05-10T14:43:22.875Z,1003.90
2019-05-10T14:44:21.848Z,1003.82
2019-05-10T14:45:21.869Z,1003.91
2019-05-10T14:46:21.840Z,1003.93
2019-05-10T14:47:21.832Z,1003.91
2019-05-10T14:48:27.748Z,1003.90
2019-05-10T14:49:22.855Z,1003.90
2019-05-10T14:50:26.191Z,1003.91
2019-05-10T14:51:37.628Z,1003.93
2019-05-10T14:52:23.061Z,1003.89
2019-05-10T14:53:25.744Z,1003.97
2019-05-10T14:54:22.756Z,1003.99
2019-05-10T14:55:21.725Z,1003.97
2019-05-10T14:56:21.718Z,1003.99
2019-05-10T14:57:23.292Z,1004.00
2019-05-10T14:58:21.687Z,1003.91
2019-05-10T14:59:21.700Z,1003.94
2019-05-10T15:00:21.762Z,1003.96
2019-05-10T15:01:21.657Z,1003.94
2019-05-10T15:02:22.639Z,1003.94
2019-05-10T15:03:21.675Z,1003.93
2019-05-10T15:04:43.755Z,1003.92
2019-05-10T15:05:22.614Z,1003.89
2019-05-10T15:06:21.697Z,1003.90
2019-05-10T15:07:21.626Z,1003.93
2019-05-10T15:08:21.632Z,1003.92
2019-05-10T15:09:24.169Z,1004.02
2019-05-10T15:10:21.569Z,1003.97
2019-05-10T15:11:26.451Z,1004.00
2019-05-10T15:12:22.893Z,1004.01
2019-05-10T15:13:26.092Z,1003.96
2019-05-10T15:14:22.639Z,1003.97
2019-05-10T15:15:21.508Z,1004.02
2019-05-10T15:16:27.256Z,1004.02
2019-05-10T15:17:22.521Z,1003.97
2019-05-10T15:18:21.858Z,1004.05
2019-05-10T15:19:26.298Z,1003.95
2019-05-10T15:20:23.025Z,1003.97
2019-05-10T15:21:21.444Z,1003.96
2019-05-10T15:22:23.175Z,1003.96
2019-05-10T15:23:21.432Z,1003.99
2019-05-10T15:24:21.469Z,1003.95
2019-05-10T15:25:21.414Z,1004.02
2019-05-10T15:26:21.453Z,1003.94
2019-05-10T15:27:22.284Z,1004.00
2019-05-10T15:28:21.399Z,1003.98
2019-05-10T15:29:24.682Z,1003.98
2019-05-10T15:30:21.345Z,1004.00
2019-05-10T15:31:23.610Z,1003.99
2019-05-10T15:32:22.359Z,1004.00
2019-05-10T15:33:21.316Z,1004.11
2019-05-10T15:34:21.338Z,1003.96
2019-05-10T15:35:21.328Z,1003.96
2019-05-10T15:36:23.533Z,1003.95
2019-05-10T15:37:22.274Z,1004.05
2019-05-10T15:38:21.356Z,1004.04
2019-05-10T15:39:22.888Z,1003.97
2019-05-10T15:40:22.233Z,1003.93
2019-05-10T15:41:22.399Z,1003.91
2019-05-10T15:42:22.026Z,1003.92
2019-05-10T15:43:24.272Z,1004.00
2019-05-10T15:44:30.145Z,1003.86
2019-05-10T15:45:22.215Z,1003.89
2019-05-10T15:46:23.401Z,1003.86
2019-05-10T15:47:22.453Z,1003.80
2019-05-10T15:48:21.177Z,1003.82
2019-05-10T15:49:24.422Z,1003.82
2019-05-10T15:50:21.128Z,1003.84
2019-05-10T15:51:35.245Z,1003.77
2019-05-10T15:52:23.511Z,1003.79
2019-05-10T15:53:25.724Z,1003.74
2019-05-10T15:54:21.152Z,1003.71
2019-05-10T15:55:28.840Z,1003.71
2019-05-10T15:56:22.081Z,1003.81
2019-05-10T15:57:22.027Z,1003.79
2019-05-10T15:58:21.077Z,1003.76
2019-05-10T15:59:21.418Z,1003.75
2019-05-10T16:00:25.085Z,1003.69
2019-05-10T16:01:27.046Z,1003.73
2019-05-10T16:02:22.049Z,1003.76
2019-05-10T16:03:20.991Z,1003.78
2019-05-10T16:04:21.032Z,1003.79
2019-05-10T16:05:25.816Z,1003.79
2019-05-10T16:06:22.000Z,1003.80
2019-05-10T16:07:20.992Z,1003.82
2019-05-10T16:08:23.943Z,1003.85
2019-05-10T16:09:21.980Z,1003.82
2019-05-10T16:10:20.933Z,1003.84
2019-05-10T16:11:20.928Z,1003.83
2019-05-10T16:12:20.894Z,1003.86
2019-05-10T16:13:24.660Z,1003.88
2019-05-10T16:14:20.892Z,1003.88
2019-05-10T16:15:21.333Z,1003.86
2019-05-10T16:16:20.865Z,1003.89
2019-05-10T16:17:23.948Z,1003.88
2019-05-10T16:18:20.934Z,1003.87
2019-05-10T16:19:20.837Z,1003.84
2019-05-10T16:20:20.875Z,1003.89
2019-05-10T16:21:20.804Z,1003.81
2019-05-10T16:22:25.157Z,1003.81
2019-05-10T16:23:21.792Z,1003.76
2019-05-10T16:24:26.477Z,1003.81
2019-05-10T16:25:21.785Z,1003.80
2019-05-10T16:26:22.880Z,1003.80
2019-05-10T16:27:20.996Z,1003.82
2019-05-10T16:28:22.870Z,1003.81
2019-05-10T16:29:20.716Z,1003.82
2019-05-10T16:30:20.850Z,1003.85
2019-05-10T16:31:20.702Z,1003.88
2019-05-10T16:32:20.723Z,1003.91
2019-05-10T16:33:20.772Z,1003.85
2019-05-10T16:34:20.707Z,1003.81
2019-05-10T16:35:22.151Z,1003.86
2019-05-10T16:36:23.026Z,1003.79
2019-05-10T16:37:21.636Z,1003.72
2019-05-10T16:38:20.642Z,1003.76
2019-05-10T16:39:20.618Z,1003.73
2019-05-10T16:40:20.604Z,1003.73
2019-05-10T16:41:20.686Z,1003.75
2019-05-10T16:42:21.593Z,1003.77
2019-05-10T16:43:24.653Z,1003.72
2019-05-10T16:44:21.224Z,1003.74
2019-05-10T16:45:21.225Z,1003.74
2019-05-10T16:46:20.540Z,1003.62
2019-05-10T16:47:20.569Z,1003.66
2019-05-10T16:48:20.530Z,1003.66
2019-05-10T16:49:20.558Z,1003.64
2019-05-10T16:50:20.705Z,1003.62
2019-05-10T16:51:20.487Z,1003.70
2019-05-10T16:52:26.150Z,1003.59
2019-05-10T16:53:21.457Z,1003.63
2019-05-10T16:54:25.356Z,1003.63
2019-05-10T16:55:21.450Z,1003.64
2019-05-10T16:56:21.290Z,1003.61
2019-05-10T16:57:20.446Z,1003.63
2019-05-10T16:58:22.377Z,1003.60
2019-05-10T16:59:24.411Z,1003.55
2019-05-10T17:00:21.401Z,1003.59
2019-05-10T17:01:24.999Z,1003.52
2019-05-10T17:02:21.360Z,1003.59
2019-05-10T17:03:20.698Z,1003.56
2019-05-10T17:04:20.765Z,1003.61
2019-05-10T17:05:20.331Z,1003.59
2019-05-10T17:06:20.321Z,1003.59
2019-05-10T17:07:20.635Z,1003.51
2019-05-10T17:08:20.424Z,1003.51
2019-05-10T17:09:20.303Z,1003.53
2019-05-10T17:10:20.285Z,1003.47
2019-05-10T17:11:20.274Z,1003.48
2019-05-10T17:12:22.100Z,1003.47
2019-05-10T17:13:21.761Z,1003.39
2019-05-10T17:14:20.240Z,1003.40
2019-05-10T17:15:20.280Z,1003.38
2019-05-10T17:16:20.216Z,1003.40
2019-05-10T17:17:20.232Z,1003.41
2019-05-10T17:18:23.956Z,1003.42
2019-05-10T17:19:20.205Z,1003.39
2019-05-10T17:20:20.209Z,1003.34
2019-05-10T17:21:20.183Z,1003.34
2019-05-10T17:22:20.156Z,1003.32
2019-05-10T17:23:20.154Z,1003.34
2019-05-10T17:24:23.808Z,1003.34
2019-05-10T17:25:22.671Z,1003.29
2019-05-10T17:26:20.109Z,1003.36
2019-05-10T17:27:20.099Z,1003.32
2019-05-10T17:28:20.088Z,1003.38
2019-05-10T17:29:20.082Z,1003.35
2019-05-10T17:30:21.812Z,1003.33
2019-05-10T17:31:21.081Z,1003.39
2019-05-10T17:32:24.840Z,1003.36
2019-05-10T17:33:21.037Z,1003.36
2019-05-10T17:34:27.526Z,1003.40
2019-05-10T17:35:21.033Z,1003.39
2019-05-10T17:36:21.446Z,1003.37
2019-05-10T17:37:20.004Z,1003.38
2019-05-10T17:38:19.988Z,1003.37
2019-05-10T17:39:20.002Z,1003.42
2019-05-10T17:40:20.062Z,1003.52
2019-05-10T17:41:24.714Z,1003.52
2019-05-10T17:42:20.943Z,1003.53
2019-05-10T17:43:22.768Z,1003.60
2019-05-10T17:44:23.268Z,1003.58
2019-05-10T17:45:20.728Z,1003.55
2019-05-10T17:46:20.855Z,1003.55
2019-05-10T17:47:19.907Z,1003.62
2019-05-10T17:48:19.883Z,1003.58
2019-05-10T17:49:19.876Z,1003.64
2019-05-10T17:50:19.921Z,1003.67
2019-05-10T17:51:19.849Z,1003.67
2019-05-10T17:52:19.847Z,1003.77
2019-05-10T17:53:19.872Z,1003.83
2019-05-10T17:54:19.827Z,1003.85
2019-05-10T17:55:19.843Z,1003.80
2019-05-10T17:56:19.797Z,1003.82
2019-05-10T17:57:19.792Z,1003.85
2019-05-10T17:58:19.775Z,1003.86
2019-05-10T17:59:19.794Z,1003.86
2019-05-10T18:00:19.761Z,1003.88
2019-05-10T18:01:19.776Z,1003.88
2019-05-10T18:02:19.730Z,1003.91
2019-05-10T18:03:19.784Z,1003.87
2019-05-10T18:04:19.714Z,1003.81
2019-05-10T18:05:19.716Z,1003.80
2019-05-10T18:06:23.917Z,1003.81